sensor_id;sensor_type;location;lat;lon;timestamp;P1;durP1;ratioP1;P2;durP2;ratioP2
81351;SDS011;70809;52.184;13.422;2024-02-26T00:00:34;4.18;;;2.50;;
81351;SDS011;70809;52.184;13.422;2024-02-26T00:01:36;4.20;;;2.30;;
81351;SDS011;70809;52.184;13.422;2024-02-26T00:02:38;7.22;;;2.35;;
81351;SDS011;70809;52.184;13.422;2024-02-26T00:03:39;4.82;;;2.15;;
81351;SDS011;70809;52.184;13.422;2024-02-26T00:04:41;2.90;;;1.98;;
81351;SDS011;70809;52.184;13.422;2024-02-26T00:05:44;4.38;;;2.10;;
81351;SDS011;70809;52.184;13.422;2024-02-26T00:06:46;3.63;;;1.75;;
81351;SDS011;70809;52.184;13.422;2024-02-26T00:07:48;2.42;;;1.95;;
81351;SDS011;70809;52.184;13.422;2024-02-26T00:08:49;3.67;;;1.95;;
81351;SDS011;70809;52.184;13.422;2024-02-26T00:09:51;3.42;;;2.05;;
81351;SDS011;70809;52.184;13.422;2024-02-26T00:10:52;2.67;;;1.90;;
81351;SDS011;70809;52.184;13.422;2024-02-26T00:11:54;4.03;;;2.20;;
81351;SDS011;70809;52.184;13.422;2024-02-26T00:12:56;4.70;;;2.20;;
81351;SDS011;70809;52.184;13.422;2024-02-26T00:13:58;4.75;;;2.40;;
81351;SDS011;70809;52.184;13.422;2024-02-26T00:14:59;4.78;;;2.20;;
81351;SDS011;70809;52.184;13.422;2024-02-26T00:16:01;2.85;;;1.90;;
81351;SDS011;70809;52.184;13.422;2024-02-26T00:17:03;3.17;;;2.20;;
81351;SDS011;70809;52.184;13.422;2024-02-26T00:18:05;4.03;;;2.33;;
81351;SDS011;70809;52.184;13.422;2024-02-26T00:19:07;3.22;;;1.85;;
81351;SDS011;70809;52.184;13.422;2024-02-26T00:20:10;3.85;;;2.40;;
81351;SDS011;70809;52.184;13.422;2024-02-26T00:21:13;4.53;;;2.20;;
81351;SDS011;70809;52.184;13.422;2024-02-26T00:22:15;3.40;;;1.88;;
81351;SDS011;70809;52.184;13.422;2024-02-26T00:23:17;3.33;;;2.00;;
81351;SDS011;70809;52.184;13.422;2024-02-26T00:24:18;3.42;;;2.40;;
81351;SDS011;70809;52.184;13.422;2024-02-26T00:25:20;2.78;;;1.92;;
81351;SDS011;70809;52.184;13.422;2024-02-26T00:26:22;4.20;;;2.58;;
81351;SDS011;70809;52.184;13.422;2024-02-26T00:27:23;4.20;;;2.33;;
81351;SDS011;70809;52.184;13.422;2024-02-26T00:28:25;3.58;;;2.10;;
81351;SDS011;70809;52.184;13.422;2024-02-26T00:29:27;3.70;;;2.40;;
81351;SDS011;70809;52.184;13.422;2024-02-26T00:30:28;3.40;;;2.28;;
81351;SDS011;70809;52.184;13.422;2024-02-26T00:31:30;4.28;;;2.20;;
81351;SDS011;70809;52.184;13.422;2024-02-26T00:32:31;4.22;;;2.30;;
81351;SDS011;70809;52.184;13.422;2024-02-26T00:33:33;4.43;;;2.35;;
81351;SDS011;70809;52.184;13.422;2024-02-26T00:34:35;3.47;;;2.00;;
81351;SDS011;70809;52.184;13.422;2024-02-26T00:35:37;6.13;;;2.17;;
81351;SDS011;70809;52.184;13.422;2024-02-26T00:36:40;3.53;;;2.30;;
81351;SDS011;70809;52.184;13.422;2024-02-26T00:37:41;6.20;;;2.60;;
81351;SDS011;70809;52.184;13.422;2024-02-26T00:38:43;3.63;;;2.10;;
81351;SDS011;70809;52.184;13.422;2024-02-26T00:39:44;3.80;;;2.60;;
81351;SDS011;70809;52.184;13.422;2024-02-26T00:40:46;3.17;;;2.13;;
81351;SDS011;70809;52.184;13.422;2024-02-26T00:41:48;3.70;;;2.25;;
81351;SDS011;70809;52.184;13.422;2024-02-26T00:42:49;4.38;;;2.53;;
81351;SDS011;70809;52.184;13.422;2024-02-26T00:43:51;3.95;;;2.10;;
81351;SDS011;70809;52.184;13.422;2024-02-26T00:44:53;3.05;;;2.00;;
81351;SDS011;70809;52.184;13.422;2024-02-26T00:45:54;3.45;;;2.00;;
81351;SDS011;70809;52.184;13.422;2024-02-26T00:46:56;5.75;;;3.03;;
81351;SDS011;70809;52.184;13.422;2024-02-26T00:47:58;4.00;;;2.53;;
81351;SDS011;70809;52.184;13.422;2024-02-26T00:48:59;3.88;;;2.70;;
81351;SDS011;70809;52.184;13.422;2024-02-26T00:50:02;4.10;;;2.30;;
81351;SDS011;70809;52.184;13.422;2024-02-26T00:51:04;5.78;;;2.33;;
81351;SDS011;70809;52.184;13.422;2024-02-26T00:52:07;2.70;;;1.98;;
81351;SDS011;70809;52.184;13.422;2024-02-26T00:53:09;4.43;;;2.42;;
81351;SDS011;70809;52.184;13.422;2024-02-26T00:54:11;4.28;;;2.28;;
81351;SDS011;70809;52.184;13.422;2024-02-26T00:55:12;3.17;;;2.05;;
81351;SDS011;70809;52.184;13.422;2024-02-26T00:56:14;2.67;;;2.00;;
81351;SDS011;70809;52.184;13.422;2024-02-26T00:57:16;4.93;;;2.72;;
81351;SDS011;70809;52.184;13.422;2024-02-26T00:58:17;5.35;;;2.35;;
81351;SDS011;70809;52.184;13.422;2024-02-26T00:59:21;3.58;;;2.10;;
81351;SDS011;70809;52.184;13.422;2024-02-26T01:00:23;3.60;;;2.22;;
81351;SDS011;70809;52.184;13.422;2024-02-26T01:01:25;4.70;;;2.60;;
81351;SDS011;70809;52.184;13.422;2024-02-26T01:02:26;3.97;;;2.35;;
81351;SDS011;70809;52.184;13.422;2024-02-26T01:03:28;4.28;;;2.65;;
81351;SDS011;70809;52.184;13.422;2024-02-26T01:04:30;3.28;;;2.35;;
81351;SDS011;70809;52.184;13.422;2024-02-26T01:05:33;5.07;;;2.13;;
81351;SDS011;70809;52.184;13.422;2024-02-26T01:06:35;4.22;;;2.40;;
81351;SDS011;70809;52.184;13.422;2024-02-26T01:07:38;4.70;;;2.10;;
81351;SDS011;70809;52.184;13.422;2024-02-26T01:08:40;3.65;;;2.20;;
81351;SDS011;70809;52.184;13.422;2024-02-26T01:09:42;5.68;;;2.22;;
81351;SDS011;70809;52.184;13.422;2024-02-26T01:10:44;4.03;;;2.47;;
81351;SDS011;70809;52.184;13.422;2024-02-26T01:11:45;3.88;;;2.42;;
81351;SDS011;70809;52.184;13.422;2024-02-26T01:12:47;3.90;;;2.60;;
81351;SDS011;70809;52.184;13.422;2024-02-26T01:13:48;2.88;;;2.13;;
81351;SDS011;70809;52.184;13.422;2024-02-26T01:14:51;3.63;;;2.20;;
81351;SDS011;70809;52.184;13.422;2024-02-26T01:15:55;3.90;;;2.28;;
81351;SDS011;70809;52.184;13.422;2024-02-26T01:16:57;4.97;;;2.10;;
81351;SDS011;70809;52.184;13.422;2024-02-26T01:17:59;3.30;;;2.22;;
81351;SDS011;70809;52.184;13.422;2024-02-26T01:19:00;4.25;;;2.38;;
81351;SDS011;70809;52.184;13.422;2024-02-26T01:20:03;4.10;;;2.20;;
81351;SDS011;70809;52.184;13.422;2024-02-26T01:21:06;4.80;;;2.58;;
81351;SDS011;70809;52.184;13.422;2024-02-26T01:22:07;3.83;;;2.08;;
81351;SDS011;70809;52.184;13.422;2024-02-26T01:23:10;3.75;;;2.25;;
81351;SDS011;70809;52.184;13.422;2024-02-26T01:24:13;3.33;;;2.30;;
81351;SDS011;70809;52.184;13.422;2024-02-26T01:25:15;4.00;;;2.40;;
81351;SDS011;70809;52.184;13.422;2024-02-26T01:26:16;3.85;;;2.35;;
81351;SDS011;70809;52.184;13.422;2024-02-26T01:27:18;3.88;;;2.38;;
81351;SDS011;70809;52.184;13.422;2024-02-26T01:28:20;4.15;;;2.22;;
81351;SDS011;70809;52.184;13.422;2024-02-26T01:29:21;4.80;;;2.33;;
81351;SDS011;70809;52.184;13.422;2024-02-26T01:30:23;3.63;;;2.17;;
81351;SDS011;70809;52.184;13.422;2024-02-26T01:31:25;4.25;;;2.40;;
81351;SDS011;70809;52.184;13.422;2024-02-26T01:32:26;4.35;;;2.53;;
81351;SDS011;70809;52.184;13.422;2024-02-26T01:33:28;4.90;;;2.50;;
81351;SDS011;70809;52.184;13.422;2024-02-26T01:34:30;3.38;;;2.28;;
81351;SDS011;70809;52.184;13.422;2024-02-26T01:35:31;6.53;;;2.60;;
81351;SDS011;70809;52.184;13.422;2024-02-26T01:36:33;4.07;;;2.22;;
81351;SDS011;70809;52.184;13.422;2024-02-26T01:37:35;5.80;;;2.53;;
81351;SDS011;70809;52.184;13.422;2024-02-26T01:38:38;4.57;;;2.38;;
81351;SDS011;70809;52.184;13.422;2024-02-26T01:39:39;6.57;;;2.70;;
81351;SDS011;70809;52.184;13.422;2024-02-26T01:40:41;3.60;;;2.50;;
81351;SDS011;70809;52.184;13.422;2024-02-26T01:41:43;5.03;;;2.42;;
81351;SDS011;70809;52.184;13.422;2024-02-26T01:42:45;4.57;;;2.38;;
81351;SDS011;70809;52.184;13.422;2024-02-26T01:43:46;3.95;;;2.00;;
81351;SDS011;70809;52.184;13.422;2024-02-26T01:44:49;3.97;;;2.20;;
81351;SDS011;70809;52.184;13.422;2024-02-26T01:45:51;3.97;;;2.40;;
81351;SDS011;70809;52.184;13.422;2024-02-26T01:46:53;3.90;;;2.40;;
81351;SDS011;70809;52.184;13.422;2024-02-26T01:47:55;4.60;;;2.75;;
81351;SDS011;70809;52.184;13.422;2024-02-26T01:48:58;2.97;;;2.08;;
81351;SDS011;70809;52.184;13.422;2024-02-26T01:50:00;3.10;;;2.15;;
81351;SDS011;70809;52.184;13.422;2024-02-26T01:51:02;4.53;;;2.22;;
81351;SDS011;70809;52.184;13.422;2024-02-26T01:52:04;4.38;;;2.90;;
81351;SDS011;70809;52.184;13.422;2024-02-26T01:53:07;2.65;;;1.90;;
81351;SDS011;70809;52.184;13.422;2024-02-26T01:54:11;4.85;;;2.33;;
81351;SDS011;70809;52.184;13.422;2024-02-26T01:55:13;4.63;;;2.20;;
81351;SDS011;70809;52.184;13.422;2024-02-26T01:56:15;3.15;;;2.00;;
81351;SDS011;70809;52.184;13.422;2024-02-26T01:57:19;4.07;;;2.30;;
81351;SDS011;70809;52.184;13.422;2024-02-26T01:58:21;4.03;;;2.38;;
81351;SDS011;70809;52.184;13.422;2024-02-26T01:59:23;3.75;;;2.42;;
81351;SDS011;70809;52.184;13.422;2024-02-26T02:00:25;3.30;;;2.40;;
81351;SDS011;70809;52.184;13.422;2024-02-26T02:01:27;4.35;;;2.10;;
81351;SDS011;70809;52.184;13.422;2024-02-26T02:02:32;3.35;;;2.60;;
81351;SDS011;70809;52.184;13.422;2024-02-26T02:03:34;4.25;;;1.88;;
81351;SDS011;70809;52.184;13.422;2024-02-26T02:04:36;4.55;;;2.42;;
81351;SDS011;70809;52.184;13.422;2024-02-26T02:05:38;4.80;;;2.20;;
81351;SDS011;70809;52.184;13.422;2024-02-26T02:06:40;3.15;;;2.10;;
81351;SDS011;70809;52.184;13.422;2024-02-26T02:07:44;3.58;;;2.00;;
81351;SDS011;70809;52.184;13.422;2024-02-26T02:08:46;2.88;;;2.08;;
81351;SDS011;70809;52.184;13.422;2024-02-26T02:09:49;3.97;;;2.53;;
81351;SDS011;70809;52.184;13.422;2024-02-26T02:10:51;3.85;;;2.10;;
81351;SDS011;70809;52.184;13.422;2024-02-26T02:11:53;5.13;;;2.53;;
81351;SDS011;70809;52.184;13.422;2024-02-26T02:12:55;4.22;;;2.42;;
81351;SDS011;70809;52.184;13.422;2024-02-26T02:13:57;3.80;;;2.50;;
81351;SDS011;70809;52.184;13.422;2024-02-26T02:15:00;3.97;;;2.50;;
81351;SDS011;70809;52.184;13.422;2024-02-26T02:16:03;4.57;;;2.42;;
81351;SDS011;70809;52.184;13.422;2024-02-26T02:17:05;5.00;;;2.25;;
81351;SDS011;70809;52.184;13.422;2024-02-26T02:18:06;7.53;;;2.50;;
81351;SDS011;70809;52.184;13.422;2024-02-26T02:19:08;3.80;;;2.40;;
81351;SDS011;70809;52.184;13.422;2024-02-26T02:20:14;5.13;;;2.53;;
81351;SDS011;70809;52.184;13.422;2024-02-26T02:21:18;3.72;;;2.50;;
81351;SDS011;70809;52.184;13.422;2024-02-26T02:22:20;3.47;;;2.20;;
81351;SDS011;70809;52.184;13.422;2024-02-26T02:23:21;3.10;;;1.92;;
81351;SDS011;70809;52.184;13.422;2024-02-26T02:24:23;4.18;;;2.58;;
81351;SDS011;70809;52.184;13.422;2024-02-26T02:25:24;3.35;;;1.73;;
81351;SDS011;70809;52.184;13.422;2024-02-26T02:26:26;3.08;;;2.00;;
81351;SDS011;70809;52.184;13.422;2024-02-26T02:27:28;4.70;;;2.25;;
81351;SDS011;70809;52.184;13.422;2024-02-26T02:28:30;2.85;;;1.83;;
81351;SDS011;70809;52.184;13.422;2024-02-26T02:29:32;3.55;;;1.95;;
81351;SDS011;70809;52.184;13.422;2024-02-26T02:30:34;4.30;;;2.53;;
81351;SDS011;70809;52.184;13.422;2024-02-26T02:31:36;2.88;;;2.40;;
81351;SDS011;70809;52.184;13.422;2024-02-26T02:32:37;3.13;;;2.17;;
81351;SDS011;70809;52.184;13.422;2024-02-26T02:33:41;3.00;;;2.22;;
81351;SDS011;70809;52.184;13.422;2024-02-26T02:34:44;3.60;;;2.25;;
81351;SDS011;70809;52.184;13.422;2024-02-26T02:35:49;4.68;;;2.35;;
81351;SDS011;70809;52.184;13.422;2024-02-26T02:36:55;3.28;;;2.00;;
81351;SDS011;70809;52.184;13.422;2024-02-26T02:37:56;3.70;;;2.40;;
81351;SDS011;70809;52.184;13.422;2024-02-26T02:38:58;4.88;;;2.50;;
81351;SDS011;70809;52.184;13.422;2024-02-26T02:40:00;3.88;;;2.33;;
81351;SDS011;70809;52.184;13.422;2024-02-26T02:41:02;3.58;;;2.33;;
81351;SDS011;70809;52.184;13.422;2024-02-26T02:42:04;5.45;;;2.50;;
81351;SDS011;70809;52.184;13.422;2024-02-26T02:43:06;4.07;;;2.38;;
81351;SDS011;70809;52.184;13.422;2024-02-26T02:44:08;4.88;;;2.20;;
81351;SDS011;70809;52.184;13.422;2024-02-26T02:45:09;3.63;;;2.50;;
81351;SDS011;70809;52.184;13.422;2024-02-26T02:46:11;4.15;;;2.40;;
81351;SDS011;70809;52.184;13.422;2024-02-26T02:47:13;3.38;;;1.95;;
81351;SDS011;70809;52.184;13.422;2024-02-26T02:48:14;3.67;;;2.47;;
81351;SDS011;70809;52.184;13.422;2024-02-26T02:49:16;3.25;;;2.00;;
81351;SDS011;70809;52.184;13.422;2024-02-26T02:50:18;6.38;;;2.30;;
81351;SDS011;70809;52.184;13.422;2024-02-26T02:51:19;3.67;;;2.17;;
81351;SDS011;70809;52.184;13.422;2024-02-26T02:52:25;3.97;;;2.10;;
81351;SDS011;70809;52.184;13.422;2024-02-26T02:53:26;4.07;;;2.90;;
81351;SDS011;70809;52.184;13.422;2024-02-26T02:54:28;5.45;;;2.85;;
81351;SDS011;70809;52.184;13.422;2024-02-26T02:55:30;4.13;;;2.58;;
81351;SDS011;70809;52.184;13.422;2024-02-26T02:56:32;3.13;;;2.33;;
81351;SDS011;70809;52.184;13.422;2024-02-26T02:57:34;3.17;;;2.08;;
81351;SDS011;70809;52.184;13.422;2024-02-26T02:58:35;4.72;;;2.30;;
81351;SDS011;70809;52.184;13.422;2024-02-26T02:59:37;4.57;;;2.50;;
81351;SDS011;70809;52.184;13.422;2024-02-26T03:00:39;4.15;;;2.53;;
81351;SDS011;70809;52.184;13.422;2024-02-26T03:01:41;3.80;;;2.60;;
81351;SDS011;70809;52.184;13.422;2024-02-26T03:02:42;3.47;;;2.03;;
81351;SDS011;70809;52.184;13.422;2024-02-26T03:03:44;3.47;;;2.10;;
81351;SDS011;70809;52.184;13.422;2024-02-26T03:04:46;6.13;;;2.30;;
81351;SDS011;70809;52.184;13.422;2024-02-26T03:05:48;2.85;;;2.13;;
81351;SDS011;70809;52.184;13.422;2024-02-26T03:06:50;3.67;;;2.38;;
81351;SDS011;70809;52.184;13.422;2024-02-26T03:07:53;4.38;;;2.25;;
81351;SDS011;70809;52.184;13.422;2024-02-26T03:08:54;4.22;;;2.40;;
81351;SDS011;70809;52.184;13.422;2024-02-26T03:09:56;7.65;;;2.42;;
81351;SDS011;70809;52.184;13.422;2024-02-26T03:10:58;2.92;;;2.03;;
81351;SDS011;70809;52.184;13.422;2024-02-26T03:12:00;3.38;;;2.30;;
81351;SDS011;70809;52.184;13.422;2024-02-26T03:13:01;3.20;;;2.13;;
81351;SDS011;70809;52.184;13.422;2024-02-26T03:14:03;2.85;;;1.88;;
81351;SDS011;70809;52.184;13.422;2024-02-26T03:15:05;3.70;;;2.10;;
81351;SDS011;70809;52.184;13.422;2024-02-26T03:16:07;6.65;;;2.70;;
81351;SDS011;70809;52.184;13.422;2024-02-26T03:17:09;4.43;;;2.00;;
81351;SDS011;70809;52.184;13.422;2024-02-26T03:18:11;5.32;;;2.25;;
81351;SDS011;70809;52.184;13.422;2024-02-26T03:19:14;3.30;;;1.92;;
81351;SDS011;70809;52.184;13.422;2024-02-26T03:20:15;5.05;;;2.50;;
81351;SDS011;70809;52.184;13.422;2024-02-26T03:21:17;6.35;;;2.22;;
81351;SDS011;70809;52.184;13.422;2024-02-26T03:22:19;5.88;;;2.38;;
81351;SDS011;70809;52.184;13.422;2024-02-26T03:23:22;3.25;;;2.08;;
81351;SDS011;70809;52.184;13.422;2024-02-26T03:24:24;3.10;;;2.10;;
81351;SDS011;70809;52.184;13.422;2024-02-26T03:25:26;3.33;;;2.20;;
81351;SDS011;70809;52.184;13.422;2024-02-26T03:26:27;2.28;;;1.73;;
81351;SDS011;70809;52.184;13.422;2024-02-26T03:27:29;5.70;;;2.38;;
81351;SDS011;70809;52.184;13.422;2024-02-26T03:28:31;4.18;;;2.15;;
81351;SDS011;70809;52.184;13.422;2024-02-26T03:29:33;5.03;;;1.98;;
81351;SDS011;70809;52.184;13.422;2024-02-26T03:30:34;2.80;;;1.80;;
81351;SDS011;70809;52.184;13.422;2024-02-26T03:31:36;3.80;;;2.33;;
81351;SDS011;70809;52.184;13.422;2024-02-26T03:32:38;3.05;;;2.33;;
81351;SDS011;70809;52.184;13.422;2024-02-26T03:33:39;3.83;;;2.40;;
81351;SDS011;70809;52.184;13.422;2024-02-26T03:34:41;4.25;;;2.42;;
81351;SDS011;70809;52.184;13.422;2024-02-26T03:35:43;4.45;;;2.20;;
81351;SDS011;70809;52.184;13.422;2024-02-26T03:36:45;4.20;;;2.25;;
81351;SDS011;70809;52.184;13.422;2024-02-26T03:37:46;4.15;;;2.10;;
81351;SDS011;70809;52.184;13.422;2024-02-26T03:38:49;4.72;;;2.63;;
81351;SDS011;70809;52.184;13.422;2024-02-26T03:39:51;4.57;;;2.90;;
81351;SDS011;70809;52.184;13.422;2024-02-26T03:40:52;4.63;;;2.35;;
81351;SDS011;70809;52.184;13.422;2024-02-26T03:41:54;4.20;;;2.25;;
81351;SDS011;70809;52.184;13.422;2024-02-26T03:42:56;3.67;;;2.13;;
81351;SDS011;70809;52.184;13.422;2024-02-26T03:43:58;5.07;;;2.58;;
81351;SDS011;70809;52.184;13.422;2024-02-26T03:45:00;2.85;;;1.88;;
81351;SDS011;70809;52.184;13.422;2024-02-26T03:46:02;4.93;;;2.55;;
81351;SDS011;70809;52.184;13.422;2024-02-26T03:47:04;4.07;;;2.50;;
81351;SDS011;70809;52.184;13.422;2024-02-26T03:48:05;5.57;;;2.70;;
81351;SDS011;70809;52.184;13.422;2024-02-26T03:49:07;4.40;;;2.42;;
81351;SDS011;70809;52.184;13.422;2024-02-26T03:50:09;4.05;;;2.28;;
81351;SDS011;70809;52.184;13.422;2024-02-26T03:51:11;4.43;;;1.92;;
81351;SDS011;70809;52.184;13.422;2024-02-26T03:52:13;2.60;;;1.80;;
81351;SDS011;70809;52.184;13.422;2024-02-26T03:53:14;4.60;;;2.33;;
81351;SDS011;70809;52.184;13.422;2024-02-26T03:54:17;4.20;;;2.15;;
81351;SDS011;70809;52.184;13.422;2024-02-26T03:55:19;5.22;;;2.33;;
81351;SDS011;70809;52.184;13.422;2024-02-26T03:56:21;4.10;;;2.58;;
81351;SDS011;70809;52.184;13.422;2024-02-26T03:57:22;3.58;;;2.13;;
81351;SDS011;70809;52.184;13.422;2024-02-26T03:58:24;3.75;;;2.25;;
81351;SDS011;70809;52.184;13.422;2024-02-26T03:59:25;6.30;;;2.40;;
81351;SDS011;70809;52.184;13.422;2024-02-26T04:00:27;3.75;;;2.40;;
81351;SDS011;70809;52.184;13.422;2024-02-26T04:01:29;4.72;;;2.45;;
81351;SDS011;70809;52.184;13.422;2024-02-26T04:02:30;5.60;;;3.17;;
81351;SDS011;70809;52.184;13.422;2024-02-26T04:03:32;5.00;;;2.60;;
81351;SDS011;70809;52.184;13.422;2024-02-26T04:04:34;5.35;;;3.25;;
81351;SDS011;70809;52.184;13.422;2024-02-26T04:05:36;5.15;;;3.10;;
81351;SDS011;70809;52.184;13.422;2024-02-26T04:06:37;3.65;;;2.53;;
81351;SDS011;70809;52.184;13.422;2024-02-26T04:07:42;5.60;;;2.53;;
81351;SDS011;70809;52.184;13.422;2024-02-26T04:08:43;3.85;;;2.60;;
81351;SDS011;70809;52.184;13.422;2024-02-26T04:09:46;4.32;;;2.42;;
81351;SDS011;70809;52.184;13.422;2024-02-26T04:10:48;3.75;;;2.58;;
81351;SDS011;70809;52.184;13.422;2024-02-26T04:11:50;4.40;;;2.50;;
81351;SDS011;70809;52.184;13.422;2024-02-26T04:12:51;4.30;;;2.97;;
81351;SDS011;70809;52.184;13.422;2024-02-26T04:13:53;5.97;;;2.97;;
81351;SDS011;70809;52.184;13.422;2024-02-26T04:14:54;4.25;;;2.55;;
81351;SDS011;70809;52.184;13.422;2024-02-26T04:15:56;3.60;;;2.20;;
81351;SDS011;70809;52.184;13.422;2024-02-26T04:16:58;4.25;;;2.63;;
81351;SDS011;70809;52.184;13.422;2024-02-26T04:17:59;5.72;;;2.72;;
81351;SDS011;70809;52.184;13.422;2024-02-26T04:19:01;4.85;;;2.83;;
81351;SDS011;70809;52.184;13.422;2024-02-26T04:20:03;4.18;;;2.70;;
81351;SDS011;70809;52.184;13.422;2024-02-26T04:21:06;4.20;;;2.30;;
81351;SDS011;70809;52.184;13.422;2024-02-26T04:22:09;4.45;;;2.40;;
81351;SDS011;70809;52.184;13.422;2024-02-26T04:23:11;5.45;;;2.72;;
81351;SDS011;70809;52.184;13.422;2024-02-26T04:24:12;4.40;;;2.50;;
81351;SDS011;70809;52.184;13.422;2024-02-26T04:25:16;5.35;;;2.47;;
81351;SDS011;70809;52.184;13.422;2024-02-26T04:26:20;4.32;;;2.35;;
81351;SDS011;70809;52.184;13.422;2024-02-26T04:27:22;5.10;;;2.50;;
81351;SDS011;70809;52.184;13.422;2024-02-26T04:28:23;4.03;;;2.95;;
81351;SDS011;70809;52.184;13.422;2024-02-26T04:29:25;6.05;;;2.53;;
81351;SDS011;70809;52.184;13.422;2024-02-26T04:30:27;3.78;;;2.75;;
81351;SDS011;70809;52.184;13.422;2024-02-26T04:31:28;4.82;;;3.25;;
81351;SDS011;70809;52.184;13.422;2024-02-26T04:32:30;4.18;;;2.60;;
81351;SDS011;70809;52.184;13.422;2024-02-26T04:33:33;4.97;;;3.08;;
81351;SDS011;70809;52.184;13.422;2024-02-26T04:34:35;5.40;;;2.85;;
81351;SDS011;70809;52.184;13.422;2024-02-26T04:35:37;4.82;;;3.00;;
81351;SDS011;70809;52.184;13.422;2024-02-26T04:36:38;7.28;;;3.70;;
81351;SDS011;70809;52.184;13.422;2024-02-26T04:37:40;5.10;;;3.17;;
81351;SDS011;70809;52.184;13.422;2024-02-26T04:38:42;6.40;;;3.33;;
81351;SDS011;70809;52.184;13.422;2024-02-26T04:39:43;5.00;;;3.08;;
81351;SDS011;70809;52.184;13.422;2024-02-26T04:40:48;6.13;;;3.05;;
81351;SDS011;70809;52.184;13.422;2024-02-26T04:41:50;4.78;;;2.97;;
81351;SDS011;70809;52.184;13.422;2024-02-26T04:42:52;5.70;;;3.05;;
81351;SDS011;70809;52.184;13.422;2024-02-26T04:43:53;4.70;;;3.25;;
81351;SDS011;70809;52.184;13.422;2024-02-26T04:44:55;4.88;;;3.20;;
81351;SDS011;70809;52.184;13.422;2024-02-26T04:45:57;6.85;;;3.13;;
81351;SDS011;70809;52.184;13.422;2024-02-26T04:47:00;8.20;;;3.40;;
81351;SDS011;70809;52.184;13.422;2024-02-26T04:48:02;8.05;;;3.83;;
81351;SDS011;70809;52.184;13.422;2024-02-26T04:49:04;6.63;;;3.42;;
81351;SDS011;70809;52.184;13.422;2024-02-26T04:50:06;9.73;;;3.47;;
81351;SDS011;70809;52.184;13.422;2024-02-26T04:51:08;6.15;;;3.10;;
81351;SDS011;70809;52.184;13.422;2024-02-26T04:52:11;5.25;;;3.40;;
81351;SDS011;70809;52.184;13.422;2024-02-26T04:53:12;6.10;;;3.40;;
81351;SDS011;70809;52.184;13.422;2024-02-26T04:54:14;6.07;;;4.10;;
81351;SDS011;70809;52.184;13.422;2024-02-26T04:55:15;6.60;;;3.63;;
81351;SDS011;70809;52.184;13.422;2024-02-26T04:56:18;6.28;;;3.80;;
81351;SDS011;70809;52.184;13.422;2024-02-26T04:57:21;7.70;;;4.20;;
81351;SDS011;70809;52.184;13.422;2024-02-26T04:58:22;6.65;;;3.30;;
81351;SDS011;70809;52.184;13.422;2024-02-26T04:59:24;7.25;;;3.75;;
81351;SDS011;70809;52.184;13.422;2024-02-26T05:00:26;10.20;;;4.28;;
81351;SDS011;70809;52.184;13.422;2024-02-26T05:01:27;7.10;;;4.20;;
81351;SDS011;70809;52.184;13.422;2024-02-26T05:02:29;6.63;;;4.13;;
81351;SDS011;70809;52.184;13.422;2024-02-26T05:03:31;7.00;;;3.55;;
81351;SDS011;70809;52.184;13.422;2024-02-26T05:04:37;5.88;;;4.07;;
81351;SDS011;70809;52.184;13.422;2024-02-26T05:05:38;6.95;;;4.22;;
81351;SDS011;70809;52.184;13.422;2024-02-26T05:06:40;7.18;;;4.43;;
81351;SDS011;70809;52.184;13.422;2024-02-26T05:07:41;11.43;;;4.55;;
81351;SDS011;70809;52.184;13.422;2024-02-26T05:08:43;7.40;;;4.30;;
81351;SDS011;70809;52.184;13.422;2024-02-26T05:09:46;7.97;;;4.18;;
81351;SDS011;70809;52.184;13.422;2024-02-26T05:10:48;9.65;;;5.10;;
81351;SDS011;70809;52.184;13.422;2024-02-26T05:11:54;8.07;;;4.57;;
81351;SDS011;70809;52.184;13.422;2024-02-26T05:12:55;9.98;;;4.90;;
81351;SDS011;70809;52.184;13.422;2024-02-26T05:13:57;8.32;;;5.60;;
81351;SDS011;70809;52.184;13.422;2024-02-26T05:14:59;11.00;;;5.25;;
81351;SDS011;70809;52.184;13.422;2024-02-26T05:16:00;9.85;;;5.65;;
81351;SDS011;70809;52.184;13.422;2024-02-26T05:17:02;8.52;;;5.32;;
81351;SDS011;70809;52.184;13.422;2024-02-26T05:18:04;7.93;;;4.82;;
81351;SDS011;70809;52.184;13.422;2024-02-26T05:19:06;12.40;;;5.95;;
81351;SDS011;70809;52.184;13.422;2024-02-26T05:20:09;9.23;;;5.68;;
81351;SDS011;70809;52.184;13.422;2024-02-26T05:21:11;10.60;;;5.70;;
81351;SDS011;70809;52.184;13.422;2024-02-26T05:22:12;9.30;;;5.93;;
81351;SDS011;70809;52.184;13.422;2024-02-26T05:23:14;7.88;;;4.82;;
81351;SDS011;70809;52.184;13.422;2024-02-26T05:24:15;11.85;;;5.28;;
81351;SDS011;70809;52.184;13.422;2024-02-26T05:25:17;8.07;;;5.07;;
81351;SDS011;70809;52.184;13.422;2024-02-26T05:26:19;9.90;;;5.50;;
81351;SDS011;70809;52.184;13.422;2024-02-26T05:27:23;7.47;;;5.05;;
81351;SDS011;70809;52.184;13.422;2024-02-26T05:28:24;9.05;;;4.63;;
81351;SDS011;70809;52.184;13.422;2024-02-26T05:29:26;6.68;;;3.78;;
81351;SDS011;70809;52.184;13.422;2024-02-26T05:30:28;6.88;;;3.90;;
81351;SDS011;70809;52.184;13.422;2024-02-26T05:31:30;9.43;;;4.80;;
81351;SDS011;70809;52.184;13.422;2024-02-26T05:32:31;10.23;;;5.10;;
81351;SDS011;70809;52.184;13.422;2024-02-26T05:33:33;11.05;;;5.22;;
81351;SDS011;70809;52.184;13.422;2024-02-26T05:34:35;10.10;;;5.68;;
81351;SDS011;70809;52.184;13.422;2024-02-26T05:35:36;11.73;;;4.40;;
81351;SDS011;70809;52.184;13.422;2024-02-26T05:36:38;15.40;;;4.22;;
81351;SDS011;70809;52.184;13.422;2024-02-26T05:37:40;9.60;;;4.30;;
81351;SDS011;70809;52.184;13.422;2024-02-26T05:38:41;7.00;;;4.13;;
81351;SDS011;70809;52.184;13.422;2024-02-26T05:39:43;8.27;;;4.07;;
81351;SDS011;70809;52.184;13.422;2024-02-26T05:40:45;9.20;;;4.55;;
81351;SDS011;70809;52.184;13.422;2024-02-26T05:41:46;8.32;;;5.20;;
81351;SDS011;70809;52.184;13.422;2024-02-26T05:42:49;11.73;;;4.78;;
81351;SDS011;70809;52.184;13.422;2024-02-26T05:43:51;8.70;;;4.80;;
81351;SDS011;70809;52.184;13.422;2024-02-26T05:44:53;10.40;;;4.97;;
81351;SDS011;70809;52.184;13.422;2024-02-26T05:45:54;8.55;;;4.90;;
81351;SDS011;70809;52.184;13.422;2024-02-26T05:46:56;7.38;;;4.20;;
81351;SDS011;70809;52.184;13.422;2024-02-26T05:47:57;6.57;;;4.18;;
81351;SDS011;70809;52.184;13.422;2024-02-26T05:48:59;10.32;;;4.45;;
81351;SDS011;70809;52.184;13.422;2024-02-26T05:50:01;6.53;;;4.07;;
81351;SDS011;70809;52.184;13.422;2024-02-26T05:51:03;5.97;;;3.13;;
81351;SDS011;70809;52.184;13.422;2024-02-26T05:52:05;6.63;;;3.42;;
81351;SDS011;70809;52.184;13.422;2024-02-26T05:53:07;6.95;;;3.35;;
81351;SDS011;70809;52.184;13.422;2024-02-26T05:54:09;6.03;;;3.25;;
81351;SDS011;70809;52.184;13.422;2024-02-26T05:55:10;4.22;;;2.50;;
81351;SDS011;70809;52.184;13.422;2024-02-26T05:56:12;4.65;;;2.80;;
81351;SDS011;70809;52.184;13.422;2024-02-26T05:57:14;7.38;;;3.42;;
81351;SDS011;70809;52.184;13.422;2024-02-26T05:58:17;5.35;;;3.30;;
81351;SDS011;70809;52.184;13.422;2024-02-26T05:59:18;5.35;;;3.35;;
81351;SDS011;70809;52.184;13.422;2024-02-26T06:00:20;5.82;;;3.10;;
81351;SDS011;70809;52.184;13.422;2024-02-26T06:01:22;4.88;;;2.97;;
81351;SDS011;70809;52.184;13.422;2024-02-26T06:02:24;5.43;;;3.30;;
81351;SDS011;70809;52.184;13.422;2024-02-26T06:03:26;6.90;;;3.33;;
81351;SDS011;70809;52.184;13.422;2024-02-26T06:04:28;5.13;;;2.72;;
81351;SDS011;70809;52.184;13.422;2024-02-26T06:05:29;7.65;;;3.58;;
81351;SDS011;70809;52.184;13.422;2024-02-26T06:06:31;5.18;;;3.25;;
81351;SDS011;70809;52.184;13.422;2024-02-26T06:07:33;4.78;;;3.05;;